sensor_id;sensor_type;location;lat;lon;timestamp;P1;durP1;ratioP1;P2;durP2;ratioP2
81353;SDS011;70810;52.038;8.524;2024-02-21T00:00:35;43.70;;;19.58;;
81353;SDS011;70810;52.038;8.524;2024-02-21T00:03:05;38.95;;;15.60;;
81353;SDS011;70810;52.038;8.524;2024-02-21T00:05:32;47.72;;;19.30;;
81353;SDS011;70810;52.038;8.524;2024-02-21T00:07:59;33.67;;;18.40;;
81353;SDS011;70810;52.038;8.524;2024-02-21T00:10:25;43.28;;;18.15;;
81353;SDS011;70810;52.038;8.524;2024-02-21T00:12:58;44.25;;;18.35;;
81353;SDS011;70810;52.038;8.524;2024-02-21T00:15:26;37.97;;;16.98;;
81353;SDS011;70810;52.038;8.524;2024-02-21T00:17:53;46.05;;;18.23;;
81353;SDS011;70810;52.038;8.524;2024-02-21T00:20:23;50.45;;;18.75;;
81353;SDS011;70810;52.038;8.524;2024-02-21T00:22:52;36.55;;;18.85;;
81353;SDS011;70810;52.038;8.524;2024-02-21T00:25:19;38.08;;;18.42;;
81353;SDS011;70810;52.038;8.524;2024-02-21T00:27:49;39.47;;;17.65;;
81353;SDS011;70810;52.038;8.524;2024-02-21T00:30:21;48.78;;;17.90;;
81353;SDS011;70810;52.038;8.524;2024-02-21T00:32:48;29.98;;;16.08;;
81353;SDS011;70810;52.038;8.524;2024-02-21T00:35:15;47.33;;;19.77;;
81353;SDS011;70810;52.038;8.524;2024-02-21T00:37:45;33.70;;;18.48;;
81353;SDS011;70810;52.038;8.524;2024-02-21T00:40:12;43.70;;;19.75;;
81353;SDS011;70810;52.038;8.524;2024-02-21T00:42:41;63.08;;;19.70;;
81353;SDS011;70810;52.038;8.524;2024-02-21T00:45:08;49.33;;;19.92;;
81353;SDS011;70810;52.038;8.524;2024-02-21T00:47:36;34.45;;;17.67;;
81353;SDS011;70810;52.038;8.524;2024-02-21T00:50:04;77.07;;;19.25;;
81353;SDS011;70810;52.038;8.524;2024-02-21T00:52:34;44.20;;;17.50;;
81353;SDS011;70810;52.038;8.524;2024-02-21T00:55:02;34.97;;;17.13;;
81353;SDS011;70810;52.038;8.524;2024-02-21T00:57:30;49.95;;;20.80;;
81353;SDS011;70810;52.038;8.524;2024-02-21T00:59:58;38.53;;;19.23;;
81353;SDS011;70810;52.038;8.524;2024-02-21T01:02:25;45.50;;;18.05;;
81353;SDS011;70810;52.038;8.524;2024-02-21T01:04:51;53.53;;;21.60;;
81353;SDS011;70810;52.038;8.524;2024-02-21T01:07:18;49.72;;;23.88;;
81353;SDS011;70810;52.038;8.524;2024-02-21T01:09:44;35.13;;;16.27;;
81353;SDS011;70810;52.038;8.524;2024-02-21T01:12:14;37.35;;;17.90;;
81353;SDS011;70810;52.038;8.524;2024-02-21T01:14:40;50.08;;;18.42;;
81353;SDS011;70810;52.038;8.524;2024-02-21T01:17:07;34.97;;;18.40;;
81353;SDS011;70810;52.038;8.524;2024-02-21T01:19:33;43.28;;;17.85;;
81353;SDS011;70810;52.038;8.524;2024-02-21T01:22:00;30.27;;;17.52;;
81353;SDS011;70810;52.038;8.524;2024-02-21T01:24:26;46.47;;;18.48;;
81353;SDS011;70810;52.038;8.524;2024-02-21T01:26:53;41.83;;;18.80;;
81353;SDS011;70810;52.038;8.524;2024-02-21T01:29:24;33.97;;;16.13;;
81353;SDS011;70810;52.038;8.524;2024-02-21T01:31:53;31.17;;;16.02;;
81353;SDS011;70810;52.038;8.524;2024-02-21T01:34:19;42.42;;;18.00;;
81353;SDS011;70810;52.038;8.524;2024-02-21T01:36:47;42.70;;;18.67;;
81353;SDS011;70810;52.038;8.524;2024-02-21T01:39:14;49.45;;;18.13;;
81353;SDS011;70810;52.038;8.524;2024-02-21T01:41:43;44.97;;;17.85;;
81353;SDS011;70810;52.038;8.524;2024-02-21T01:44:10;35.28;;;15.98;;
81353;SDS011;70810;52.038;8.524;2024-02-21T01:46:39;54.00;;;18.15;;
81353;SDS011;70810;52.038;8.524;2024-02-21T01:49:07;50.70;;;19.95;;
81353;SDS011;70810;52.038;8.524;2024-02-21T01:51:36;59.10;;;20.40;;
81353;SDS011;70810;52.038;8.524;2024-02-21T01:54:03;36.00;;;16.27;;
81353;SDS011;70810;52.038;8.524;2024-02-21T01:56:31;47.67;;;19.17;;
81353;SDS011;70810;52.038;8.524;2024-02-21T01:59:02;41.05;;;17.92;;
81353;SDS011;70810;52.038;8.524;2024-02-21T02:01:30;54.20;;;17.45;;
81353;SDS011;70810;52.038;8.524;2024-02-21T02:04:00;62.63;;;19.70;;
81353;SDS011;70810;52.038;8.524;2024-02-21T02:06:27;39.60;;;14.93;;
81353;SDS011;70810;52.038;8.524;2024-02-21T02:08:54;44.40;;;16.65;;
81353;SDS011;70810;52.038;8.524;2024-02-21T02:11:21;41.08;;;16.02;;
81353;SDS011;70810;52.038;8.524;2024-02-21T02:13:48;36.78;;;16.55;;
81353;SDS011;70810;52.038;8.524;2024-02-21T02:16:14;41.85;;;18.83;;
81353;SDS011;70810;52.038;8.524;2024-02-21T02:18:41;39.05;;;19.92;;
81353;SDS011;70810;52.038;8.524;2024-02-21T02:21:16;40.03;;;17.08;;
81353;SDS011;70810;52.038;8.524;2024-02-21T02:23:58;47.20;;;19.30;;
81353;SDS011;70810;52.038;8.524;2024-02-21T02:26:26;40.22;;;17.98;;
81353;SDS011;70810;52.038;8.524;2024-02-21T02:28:53;55.50;;;19.15;;
81353;SDS011;70810;52.038;8.524;2024-02-21T02:31:21;60.90;;;18.15;;
81353;SDS011;70810;52.038;8.524;2024-02-21T02:33:49;58.65;;;17.70;;
81353;SDS011;70810;52.038;8.524;2024-02-21T02:36:17;45.38;;;18.55;;
81353;SDS011;70810;52.038;8.524;2024-02-21T02:38:44;45.22;;;19.58;;
81353;SDS011;70810;52.038;8.524;2024-02-21T02:41:14;46.10;;;18.17;;
81353;SDS011;70810;52.038;8.524;2024-02-21T02:43:42;45.45;;;17.52;;
81353;SDS011;70810;52.038;8.524;2024-02-21T02:46:09;44.47;;;18.83;;
81353;SDS011;70810;52.038;8.524;2024-02-21T02:48:36;49.00;;;19.55;;
81353;SDS011;70810;52.038;8.524;2024-02-21T02:51:05;58.65;;;19.83;;
81353;SDS011;70810;52.038;8.524;2024-02-21T02:53:32;47.15;;;19.40;;
81353;SDS011;70810;52.038;8.524;2024-02-21T02:55:59;45.17;;;17.10;;
81353;SDS011;70810;52.038;8.524;2024-02-21T02:58:27;53.33;;;17.90;;
81353;SDS011;70810;52.038;8.524;2024-02-21T03:00:54;40.78;;;19.02;;
81353;SDS011;70810;52.038;8.524;2024-02-21T03:03:21;41.15;;;17.45;;
81353;SDS011;70810;52.038;8.524;2024-02-21T03:05:49;43.75;;;16.30;;
81353;SDS011;70810;52.038;8.524;2024-02-21T03:08:17;40.80;;;18.17;;
81353;SDS011;70810;52.038;8.524;2024-02-21T03:10:44;37.60;;;16.98;;
81353;SDS011;70810;52.038;8.524;2024-02-21T03:13:12;29.75;;;15.27;;
81353;SDS011;70810;52.038;8.524;2024-02-21T03:15:43;39.28;;;15.95;;
81353;SDS011;70810;52.038;8.524;2024-02-21T03:18:11;36.83;;;16.35;;
81353;SDS011;70810;52.038;8.524;2024-02-21T03:20:39;34.28;;;17.20;;
81353;SDS011;70810;52.038;8.524;2024-02-21T03:23:05;53.58;;;17.50;;
81353;SDS011;70810;52.038;8.524;2024-02-21T03:25:33;47.08;;;16.70;;
81353;SDS011;70810;52.038;8.524;2024-02-21T03:28:00;34.20;;;14.75;;
81353;SDS011;70810;52.038;8.524;2024-02-21T03:30:28;53.17;;;18.25;;
81353;SDS011;70810;52.038;8.524;2024-02-21T03:32:56;43.38;;;17.02;;
81353;SDS011;70810;52.038;8.524;2024-02-21T03:35:23;38.38;;;15.50;;
81353;SDS011;70810;52.038;8.524;2024-02-21T03:37:51;43.70;;;16.30;;
81353;SDS011;70810;52.038;8.524;2024-02-21T03:40:20;34.20;;;16.60;;
81353;SDS011;70810;52.038;8.524;2024-02-21T03:42:48;34.28;;;14.68;;
81353;SDS011;70810;52.038;8.524;2024-02-21T03:45:15;39.05;;;15.60;;
81353;SDS011;70810;52.038;8.524;2024-02-21T03:47:42;44.22;;;17.02;;
81353;SDS011;70810;52.038;8.524;2024-02-21T03:50:10;29.55;;;14.30;;
81353;SDS011;70810;52.038;8.524;2024-02-21T03:52:38;41.17;;;16.33;;
81353;SDS011;70810;52.038;8.524;2024-02-21T03:55:05;30.42;;;14.80;;
81353;SDS011;70810;52.038;8.524;2024-02-21T03:57:36;48.10;;;15.05;;
81353;SDS011;70810;52.038;8.524;2024-02-21T04:00:05;40.67;;;15.57;;
81353;SDS011;70810;52.038;8.524;2024-02-21T04:02:39;45.33;;;14.88;;
81353;SDS011;70810;52.038;8.524;2024-02-21T04:05:08;35.75;;;15.15;;
81353;SDS011;70810;52.038;8.524;2024-02-21T04:07:37;43.75;;;15.48;;
81353;SDS011;70810;52.038;8.524;2024-02-21T04:10:05;37.40;;;14.27;;
81353;SDS011;70810;52.038;8.524;2024-02-21T04:12:36;37.47;;;13.35;;
81353;SDS011;70810;52.038;8.524;2024-02-21T04:15:03;44.83;;;17.20;;
81353;SDS011;70810;52.038;8.524;2024-02-21T04:17:31;34.85;;;15.95;;
81353;SDS011;70810;52.038;8.524;2024-02-21T04:20:01;49.78;;;15.90;;
81353;SDS011;70810;52.038;8.524;2024-02-21T04:22:31;40.42;;;16.70;;
81353;SDS011;70810;52.038;8.524;2024-02-21T04:24:59;48.50;;;14.60;;
81353;SDS011;70810;52.038;8.524;2024-02-21T04:27:26;65.53;;;17.65;;
81353;SDS011;70810;52.038;8.524;2024-02-21T04:29:52;50.33;;;17.77;;
81353;SDS011;70810;52.038;8.524;2024-02-21T04:32:21;43.33;;;15.55;;
81353;SDS011;70810;52.038;8.524;2024-02-21T04:34:47;48.92;;;17.20;;
81353;SDS011;70810;52.038;8.524;2024-02-21T04:37:14;38.45;;;15.93;;
81353;SDS011;70810;52.038;8.524;2024-02-21T04:39:45;46.08;;;14.43;;
81353;SDS011;70810;52.038;8.524;2024-02-21T04:42:11;42.95;;;14.50;;
81353;SDS011;70810;52.038;8.524;2024-02-21T04:44:39;57.78;;;17.40;;
81353;SDS011;70810;52.038;8.524;2024-02-21T04:47:07;40.15;;;16.00;;
81353;SDS011;70810;52.038;8.524;2024-02-21T04:49:34;51.33;;;15.88;;
81353;SDS011;70810;52.038;8.524;2024-02-21T04:52:01;40.15;;;19.80;;
81353;SDS011;70810;52.038;8.524;2024-02-21T04:54:28;44.65;;;16.15;;
81353;SDS011;70810;52.038;8.524;2024-02-21T04:57:00;34.85;;;17.05;;
81353;SDS011;70810;52.038;8.524;2024-02-21T04:59:27;33.10;;;14.60;;
81353;SDS011;70810;52.038;8.524;2024-02-21T05:01:54;42.83;;;15.35;;
81353;SDS011;70810;52.038;8.524;2024-02-21T05:04:22;49.00;;;17.17;;
81353;SDS011;70810;52.038;8.524;2024-02-21T05:06:49;45.70;;;17.00;;
81353;SDS011;70810;52.038;8.524;2024-02-21T05:09:18;37.03;;;15.52;;
81353;SDS011;70810;52.038;8.524;2024-02-21T05:11:45;51.45;;;19.50;;
81353;SDS011;70810;52.038;8.524;2024-02-21T05:14:14;40.80;;;16.05;;
81353;SDS011;70810;52.038;8.524;2024-02-21T05:16:41;41.25;;;16.17;;
81353;SDS011;70810;52.038;8.524;2024-02-21T05:19:08;53.70;;;18.15;;
81353;SDS011;70810;52.038;8.524;2024-02-21T05:21:35;42.08;;;16.38;;
81353;SDS011;70810;52.038;8.524;2024-02-21T05:24:03;54.38;;;18.83;;
81353;SDS011;70810;52.038;8.524;2024-02-21T05:26:32;45.13;;;16.67;;
81353;SDS011;70810;52.038;8.524;2024-02-21T05:29:02;45.75;;;18.88;;
81353;SDS011;70810;52.038;8.524;2024-02-21T05:31:56;39.28;;;16.83;;
81353;SDS011;70810;52.038;8.524;2024-02-21T05:34:26;37.10;;;16.00;;
81353;SDS011;70810;52.038;8.524;2024-02-21T05:36:52;48.13;;;16.65;;
81353;SDS011;70810;52.038;8.524;2024-02-21T05:39:19;32.67;;;15.50;;
81353;SDS011;70810;52.038;8.524;2024-02-21T05:41:47;50.85;;;17.25;;
81353;SDS011;70810;52.038;8.524;2024-02-21T05:44:15;52.90;;;17.73;;
81353;SDS011;70810;52.038;8.524;2024-02-21T05:46:41;46.00;;;19.92;;
81353;SDS011;70810;52.038;8.524;2024-02-21T05:49:09;41.35;;;19.20;;
81353;SDS011;70810;52.038;8.524;2024-02-21T05:51:36;46.65;;;18.95;;
81353;SDS011;70810;52.038;8.524;2024-02-21T05:54:02;45.38;;;20.27;;
81353;SDS011;70810;52.038;8.524;2024-02-21T05:56:29;39.42;;;17.27;;
81353;SDS011;70810;52.038;8.524;2024-02-21T05:58:56;50.72;;;21.67;;
81353;SDS011;70810;52.038;8.524;2024-02-21T06:01:22;48.20;;;20.10;;
81353;SDS011;70810;52.038;8.524;2024-02-21T06:03:49;50.03;;;18.48;;
81353;SDS011;70810;52.038;8.524;2024-02-21T06:06:17;44.38;;;17.55;;
81353;SDS011;70810;52.038;8.524;2024-02-21T06:08:44;51.83;;;18.25;;
81353;SDS011;70810;52.038;8.524;2024-02-21T06:11:10;45.50;;;18.58;;
81353;SDS011;70810;52.038;8.524;2024-02-21T06:13:37;40.15;;;16.05;;
81353;SDS011;70810;52.038;8.524;2024-02-21T06:16:06;49.97;;;18.30;;
81353;SDS011;70810;52.038;8.524;2024-02-21T06:18:34;37.30;;;17.45;;
81353;SDS011;70810;52.038;8.524;2024-02-21T06:21:02;46.05;;;16.75;;
81353;SDS011;70810;52.038;8.524;2024-02-21T06:23:30;59.83;;;19.65;;
81353;SDS011;70810;52.038;8.524;2024-02-21T06:25:56;57.10;;;18.08;;
81353;SDS011;70810;52.038;8.524;2024-02-21T06:28:28;48.30;;;17.55;;
81353;SDS011;70810;52.038;8.524;2024-02-21T06:31:41;47.58;;;17.58;;
81353;SDS011;70810;52.038;8.524;2024-02-21T06:34:28;57.40;;;17.65;;
81353;SDS011;70810;52.038;8.524;2024-02-21T06:36:55;46.05;;;16.92;;
81353;SDS011;70810;52.038;8.524;2024-02-21T06:39:23;64.18;;;17.35;;
81353;SDS011;70810;52.038;8.524;2024-02-21T06:41:49;43.63;;;15.82;;
81353;SDS011;70810;52.038;8.524;2024-02-21T06:44:17;46.97;;;16.05;;
81353;SDS011;70810;52.038;8.524;2024-02-21T06:46:44;51.33;;;16.60;;
81353;SDS011;70810;52.038;8.524;2024-02-21T06:49:11;46.13;;;16.15;;
81353;SDS011;70810;52.038;8.524;2024-02-21T06:51:42;40.30;;;16.27;;
81353;SDS011;70810;52.038;8.524;2024-02-21T06:54:14;47.25;;;16.40;;
81353;SDS011;70810;52.038;8.524;2024-02-21T06:56:46;58.30;;;15.35;;
81353;SDS011;70810;52.038;8.524;2024-02-21T06:59:13;34.40;;;14.10;;
81353;SDS011;70810;52.038;8.524;2024-02-21T07:01:44;43.88;;;13.90;;
81353;SDS011;70810;52.038;8.524;2024-02-21T07:04:11;47.72;;;15.15;;
81353;SDS011;70810;52.038;8.524;2024-02-21T07:06:38;46.10;;;13.38;;
81353;SDS011;70810;52.038;8.524;2024-02-21T07:09:04;43.50;;;13.98;;
81353;SDS011;70810;52.038;8.524;2024-02-21T07:11:31;42.88;;;12.27;;
81353;SDS011;70810;52.038;8.524;2024-02-21T07:13:59;39.63;;;13.20;;
81353;SDS011;70810;52.038;8.524;2024-02-21T07:16:25;42.20;;;10.93;;
81353;SDS011;70810;52.038;8.524;2024-02-21T07:18:53;39.53;;;12.07;;
81353;SDS011;70810;52.038;8.524;2024-02-21T07:21:25;33.45;;;10.20;;
81353;SDS011;70810;52.038;8.524;2024-02-21T07:24:00;57.10;;;14.43;;
81353;SDS011;70810;52.038;8.524;2024-02-21T07:26:31;40.15;;;14.07;;
81353;SDS011;70810;52.038;8.524;2024-02-21T07:29:00;71.63;;;16.70;;
81353;SDS011;70810;52.038;8.524;2024-02-21T07:31:29;42.30;;;13.57;;
81353;SDS011;70810;52.038;8.524;2024-02-21T07:34:07;29.63;;;10.02;;
81353;SDS011;70810;52.038;8.524;2024-02-21T07:36:34;41.03;;;11.95;;
81353;SDS011;70810;52.038;8.524;2024-02-21T07:39:03;37.80;;;12.07;;
81353;SDS011;70810;52.038;8.524;2024-02-21T07:41:41;28.40;;;10.90;;
81353;SDS011;70810;52.038;8.524;2024-02-21T07:44:13;18.48;;;9.15;;
81353;SDS011;70810;52.038;8.524;2024-02-21T07:46:43;33.65;;;9.57;;
81353;SDS011;70810;52.038;8.524;2024-02-21T07:49:09;35.10;;;12.43;;
81353;SDS011;70810;52.038;8.524;2024-02-21T07:51:36;33.10;;;9.68;;
81353;SDS011;70810;52.038;8.524;2024-02-21T07:54:02;43.38;;;13.48;;
81353;SDS011;70810;52.038;8.524;2024-02-21T07:56:30;46.70;;;10.40;;
81353;SDS011;70810;52.038;8.524;2024-02-21T07:58:59;26.50;;;9.10;;
81353;SDS011;70810;52.038;8.524;2024-02-21T08:01:27;37.72;;;11.45;;
81353;SDS011;70810;52.038;8.524;2024-02-21T08:03:55;41.58;;;10.52;;
81353;SDS011;70810;52.038;8.524;2024-02-21T08:06:29;35.58;;;8.93;;
81353;SDS011;70810;52.038;8.524;2024-02-21T08:09:00;25.10;;;9.45;;
81353;SDS011;70810;52.038;8.524;2024-02-21T08:11:28;32.28;;;10.18;;
81353;SDS011;70810;52.038;8.524;2024-02-21T08:13:54;21.52;;;8.85;;
81353;SDS011;70810;52.038;8.524;2024-02-21T08:16:21;30.80;;;9.52;;
81353;SDS011;70810;52.038;8.524;2024-02-21T08:18:49;29.17;;;8.18;;
81353;SDS011;70810;52.038;8.524;2024-02-21T08:21:24;46.10;;;12.60;;
81353;SDS011;70810;52.038;8.524;2024-02-21T08:24:27;30.48;;;9.70;;
81353;SDS011;70810;52.038;8.524;2024-02-21T08:26:59;33.92;;;9.48;;
81353;SDS011;70810;52.038;8.524;2024-02-21T08:29:25;28.55;;;8.60;;
81353;SDS011;70810;52.038;8.524;2024-02-21T08:31:52;41.38;;;8.25;;
81353;SDS011;70810;52.038;8.524;2024-02-21T08:34:20;32.78;;;9.85;;
81353;SDS011;70810;52.038;8.524;2024-02-21T08:36:48;26.48;;;8.55;;
81353;SDS011;70810;52.038;8.524;2024-02-21T08:39:20;25.73;;;8.40;;
81353;SDS011;70810;52.038;8.524;2024-02-21T08:41:54;23.67;;;7.70;;
81353;SDS011;70810;52.038;8.524;2024-02-21T08:44:21;27.45;;;8.70;;
81353;SDS011;70810;52.038;8.524;2024-02-21T08:46:51;19.13;;;7.47;;
81353;SDS011;70810;52.038;8.524;2024-02-21T08:49:31;20.00;;;7.85;;
81353;SDS011;70810;52.038;8.524;2024-02-21T08:51:57;38.65;;;10.15;;
81353;SDS011;70810;52.038;8.524;2024-02-21T08:54:25;25.05;;;7.15;;
81353;SDS011;70810;52.038;8.524;2024-02-21T08:56:54;25.23;;;7.53;;
81353;SDS011;70810;52.038;8.524;2024-02-21T08:59:21;22.45;;;7.10;;
81353;SDS011;70810;52.038;8.524;2024-02-21T09:01:48;16.60;;;6.75;;
81353;SDS011;70810;52.038;8.524;2024-02-21T09:04:14;38.90;;;8.60;;
81353;SDS011;70810;52.038;8.524;2024-02-21T09:06:42;25.15;;;8.13;;
81353;SDS011;70810;52.038;8.524;2024-02-21T09:09:11;56.20;;;8.65;;
81353;SDS011;70810;52.038;8.524;2024-02-21T09:11:38;19.57;;;8.57;;
81353;SDS011;70810;52.038;8.524;2024-02-21T09:14:05;61.77;;;14.37;;
81353;SDS011;70810;52.038;8.524;2024-02-21T09:16:32;48.20;;;20.43;;
81353;SDS011;70810;52.038;8.524;2024-02-21T09:18:59;36.97;;;18.90;;
81353;SDS011;70810;52.038;8.524;2024-02-21T09:21:29;37.63;;;14.77;;
81353;SDS011;70810;52.038;8.524;2024-02-21T09:23:57;24.20;;;9.47;;
81353;SDS011;70810;52.038;8.524;2024-02-21T09:26:23;25.03;;;7.30;;
81353;SDS011;70810;52.038;8.524;2024-02-21T09:28:50;48.33;;;11.63;;
81353;SDS011;70810;52.038;8.524;2024-02-21T09:31:16;26.90;;;9.80;;
81353;SDS011;70810;52.038;8.524;2024-02-21T09:33:43;41.73;;;8.30;;
81353;SDS011;70810;52.038;8.524;2024-02-21T09:36:10;43.90;;;10.80;;
81353;SDS011;70810;52.038;8.524;2024-02-21T09:38:36;34.27;;;9.90;;
81353;SDS011;70810;52.038;8.524;2024-02-21T09:41:08;22.27;;;8.83;;
81353;SDS011;70810;52.038;8.524;2024-02-21T09:43:41;43.77;;;9.67;;
81353;SDS011;70810;52.038;8.524;2024-02-21T09:46:09;40.73;;;9.50;;
81353;SDS011;70810;52.038;8.524;2024-02-21T09:48:44;27.67;;;7.70;;
81353;SDS011;70810;52.038;8.524;2024-02-21T09:51:24;20.80;;;7.20;;
81353;SDS011;70810;52.038;8.524;2024-02-21T09:54:40;24.33;;;7.33;;
81353;SDS011;70810;52.038;8.524;2024-02-21T09:57:37;34.93;;;6.80;;
81353;SDS011;70810;52.038;8.524;2024-02-21T10:00:05;30.40;;;10.13;;
81353;SDS011;70810;52.038;8.524;2024-02-21T10:02:33;49.70;;;19.20;;
81353;SDS011;70810;52.038;8.524;2024-02-21T10:05:00;32.43;;;11.10;;
81353;SDS011;70810;52.038;8.524;2024-02-21T10:07:29;45.13;;;15.10;;
81353;SDS011;70810;52.038;8.524;2024-02-21T10:10:00;37.63;;;17.17;;
81353;SDS011;70810;52.038;8.524;2024-02-21T10:12:27;40.13;;;15.43;;
81353;SDS011;70810;52.038;8.524;2024-02-21T10:15:01;33.33;;;8.43;;
81353;SDS011;70810;52.038;8.524;2024-02-21T10:17:28;34.27;;;8.40;;
81353;SDS011;70810;52.038;8.524;2024-02-21T10:19:54;25.03;;;8.57;;
81353;SDS011;70810;52.038;8.524;2024-02-21T10:22:21;24.30;;;9.63;;
81353;SDS011;70810;52.038;8.524;2024-02-21T10:24:51;28.80;;;7.70;;
81353;SDS011;70810;52.038;8.524;2024-02-21T10:27:19;19.90;;;8.73;;
81353;SDS011;70810;52.038;8.524;2024-02-21T10:29:49;18.00;;;7.23;;
81353;SDS011;70810;52.038;8.524;2024-02-21T10:32:18;31.33;;;9.70;;
81353;SDS011;70810;52.038;8.524;2024-02-21T10:34:45;31.33;;;12.17;;
81353;SDS011;70810;52.038;8.524;2024-02-21T10:37:16;54.40;;;15.77;;
81353;SDS011;70810;52.038;8.524;2024-02-21T10:39:44;25.92;;;9.70;;
81353;SDS011;70810;52.038;8.524;2024-02-21T10:42:11;62.85;;;27.63;;
81353;SDS011;70810;52.038;8.524;2024-02-21T10:44:38;39.90;;;14.13;;
81353;SDS011;70810;52.038;8.524;2024-02-21T10:47:07;36.37;;;7.27;;
81353;SDS011;70810;52.038;8.524;2024-02-21T10:52:26;40.57;;;11.80;;
81353;SDS011;70810;52.038;8.524;2024-02-21T10:55:09;30.52;;;11.35;;
81353;SDS011;70810;52.038;8.524;2024-02-21T10:57:41;66.43;;;14.48;;
81353;SDS011;70810;52.038;8.524;2024-02-21T11:00:09;36.23;;;14.17;;
81353;SDS011;70810;52.038;8.524;2024-02-21T11:02:37;24.70;;;12.18;;
81353;SDS011;70810;52.038;8.524;2024-02-21T11:05:07;33.38;;;9.38;;
81353;SDS011;70810;52.038;8.524;2024-02-21T11:07:35;46.07;;;17.53;;
81353;SDS011;70810;52.038;8.524;2024-02-21T11:10:03;28.90;;;12.90;;
81353;SDS011;70810;52.038;8.524;2024-02-21T11:12:32;28.23;;;9.77;;
81353;SDS011;70810;52.038;8.524;2024-02-21T11:15:06;30.38;;;11.48;;
81353;SDS011;70810;52.038;8.524;2024-02-21T11:17:33;36.45;;;13.73;;
81353;SDS011;70810;52.038;8.524;2024-02-21T11:20:12;30.20;;;10.68;;
81353;SDS011;70810;52.038;8.524;2024-02-21T11:22:41;56.77;;;22.90;;
81353;SDS011;70810;52.038;8.524;2024-02-21T11:25:08;44.92;;;21.20;;
81353;SDS011;70810;52.038;8.524;2024-02-21T11:27:36;46.80;;;16.15;;
81353;SDS011;70810;52.038;8.524;2024-02-21T11:30:12;44.15;;;20.50;;
81353;SDS011;70810;52.038;8.524;2024-02-21T11:32:39;54.17;;;13.52;;
81353;SDS011;70810;52.038;8.524;2024-02-21T11:35:07;29.53;;;12.87;;
81353;SDS011;70810;52.038;8.524;2024-02-21T11:37:38;32.33;;;11.77;;
81353;SDS011;70810;52.038;8.524;2024-02-21T11:40:12;40.57;;;14.73;;
81353;SDS011;70810;52.038;8.524;2024-02-21T11:42:39;29.53;;;13.43;;
81353;SDS011;70810;52.038;8.524;2024-02-21T11:45:09;31.33;;;12.43;;
81353;SDS011;70810;52.038;8.524;2024-02-21T11:47:37;47.13;;;18.40;;
81353;SDS011;70810;52.038;8.524;2024-02-21T11:50:10;42.00;;;12.63;;
81353;SDS011;70810;52.038;8.524;2024-02-21T11:52:51;34.83;;;11.20;;
81353;SDS011;70810;52.038;8.524;2024-02-21T11:55:23;52.93;;;19.10;;
81353;SDS011;70810;52.038;8.524;2024-02-21T11:57:51;40.95;;;14.07;;
81353;SDS011;70810;52.038;8.524;2024-02-21T12:00:21;30.83;;;13.87;;
81353;SDS011;70810;52.038;8.524;2024-02-21T12:02:49;41.67;;;16.38;;
81353;SDS011;70810;52.038;8.524;2024-02-21T12:05:18;33.17;;;9.93;;
81353;SDS011;70810;52.038;8.524;2024-02-21T12:07:47;33.10;;;12.48;;
81353;SDS011;70810;52.038;8.524;2024-02-21T12:10:35;35.15;;;9.90;;
81353;SDS011;70810;52.038;8.524;2024-02-21T12:13:09;43.33;;;23.27;;
81353;SDS011;70810;52.038;8.524;2024-02-21T12:15:38;37.97;;;15.65;;
81353;SDS011;70810;52.038;8.524;2024-02-21T12:18:06;47.95;;;15.93;;
81353;SDS011;70810;52.038;8.524;2024-02-21T12:20:36;28.90;;;12.43;;
81353;SDS011;70810;52.038;8.524;2024-02-21T12:23:44;30.57;;;13.37;;
81353;SDS011;70810;52.038;8.524;2024-02-21T12:26:38;29.70;;;14.73;;
81353;SDS011;70810;52.038;8.524;2024-02-21T12:29:08;27.67;;;12.18;;
81353;SDS011;70810;52.038;8.524;2024-02-21T12:32:23;55.88;;;17.25;;
81353;SDS011;70810;52.038;8.524;2024-02-21T12:34:50;26.40;;;11.65;;
81353;SDS011;70810;52.038;8.524;2024-02-21T12:37:16;37.90;;;12.80;;
81353;SDS011;70810;52.038;8.524;2024-02-21T12:39:44;60.05;;;18.85;;
81353;SDS011;70810;52.038;8.524;2024-02-21T12:42:12;29.02;;;15.70;;
81353;SDS011;70810;52.038;8.524;2024-02-21T12:44:39;42.25;;;15.80;;
81353;SDS011;70810;52.038;8.524;2024-02-21T12:47:05;45.47;;;17.73;;
81353;SDS011;70810;52.038;8.524;2024-02-21T12:49:33;63.35;;;33.25;;
81353;SDS011;70810;52.038;8.524;2024-02-21T12:52:00;31.10;;;13.00;;
81353;SDS011;70810;52.038;8.524;2024-02-21T12:54:26;40.70;;;12.13;;
81353;SDS011;70810;52.038;8.524;2024-02-21T12:56:55;45.10;;;12.25;;
81353;SDS011;70810;52.038;8.524;2024-02-21T12:59:24;22.83;;;11.00;;
81353;SDS011;70810;52.038;8.524;2024-02-21T13:01:54;62.03;;;17.65;;
81353;SDS011;70810;52.038;8.524;2024-02-21T13:04:21;49.10;;;12.40;;
81353;SDS011;70810;52.038;8.524;2024-02-21T13:06:53;40.25;;;11.05;;
81353;SDS011;70810;52.038;8.524;2024-02-21T13:09:26;49.50;;;12.23;;
81353;SDS011;70810;52.038;8.524;2024-02-21T13:12:19;42.33;;;12.88;;
81353;SDS011;70810;52.038;8.524;2024-02-21T13:14:47;38.58;;;10.45;;
81353;SDS011;70810;52.038;8.524;2024-02-21T13:17:15;27.60;;;7.40;;
81353;SDS011;70810;52.038;8.524;2024-02-21T13:19:45;25.92;;;8.68;;
81353;SDS011;70810;52.038;8.524;2024-02-21T13:22:16;29.55;;;8.35;;
81353;SDS011;70810;52.038;8.524;2024-02-21T13:24:45;33.38;;;10.23;;
81353;SDS011;70810;52.038;8.524;2024-02-21T13:27:12;26.08;;;11.70;;
81353;SDS011;70810;52.038;8.524;2024-02-21T13:29:38;41.45;;;9.65;;
81353;SDS011;70810;52.038;8.524;2024-02-21T13:32:09;41.95;;;8.65;;
81353;SDS011;70810;52.038;8.524;2024-02-21T13:34:40;46.97;;;9.40;;
81353;SDS011;70810;52.038;8.524;2024-02-21T13:37:11;38.88;;;7.78;;
81353;SDS011;70810;52.038;8.524;2024-02-21T13:40:05;27.98;;;8.07;;
81353;SDS011;70810;52.038;8.524;2024-02-21T13:43:04;23.90;;;7.15;;
81353;SDS011;70810;52.038;8.524;2024-02-21T13:46:16;26.90;;;7.30;;
81353;SDS011;70810;52.038;8.524;2024-02-21T13:49:21;49.60;;;8.25;;
81353;SDS011;70810;52.038;8.524;2024-02-21T13:51:49;46.35;;;7.32;;
81353;SDS011;70810;52.038;8.524;2024-02-21T13:54:16;46.97;;;8.30;;
81353;SDS011;70810;52.038;8.524;2024-02-21T13:57:15;74.50;;;10.43;;
81353;SDS011;70810;52.038;8.524;2024-02-21T13:59:51;28.02;;;5.57;;
81353;SDS011;70810;52.038;8.524;2024-02-21T14:02:17;47.00;;;10.70;;
81353;SDS011;70810;52.038;8.524;2024-02-21T14:04:46;68.38;;;8.77;;
81353;SDS011;70810;52.038;8.524;2024-02-21T14:07:12;43.90;;;7.13;;
81353;SDS011;70810;52.038;8.524;2024-02-21T14:09:40;53.35;;;6.53;;
81353;SDS011;70810;52.038;8.524;2024-02-21T14:12:08;46.58;;;9.10;;
81353;SDS011;70810;52.038;8.524;2024-02-21T14:14:45;94.90;;;14.32;;
81353;SDS011;70810;52.038;8.524;2024-02-21T14:17:12;38.22;;;6.22;;
81353;SDS011;70810;52.038;8.524;2024-02-21T14:19:42;43.10;;;8.30;;
81353;SDS011;70810;52.038;8.524;2024-02-21T14:22:17;47.90;;;10.90;;
81353;SDS011;70810;52.038;8.524;2024-02-21T14:24:48;53.00;;;9.93;;
81353;SDS011;70810;52.038;8.524;2024-02-21T14:27:20;63.15;;;9.98;;
81353;SDS011;70810;52.038;8.524;2024-02-21T14:30:06;28.60;;;7.30;;
81353;SDS011;70810;52.038;8.524;2024-02-21T14:32:37;33.55;;;6.25;;
81353;SDS011;70810;52.038;8.524;2024-02-21T14:35:05;45.15;;;8.35;;
81353;SDS011;70810;52.038;8.524;2024-02-21T14:37:35;87.78;;;11.00;;
81353;SDS011;70810;52.038;8.524;2024-02-21T14:40:05;53.13;;;12.75;;
81353;SDS011;70810;52.038;8.524;2024-02-21T14:42:34;83.57;;;23.70;;